Time;durP1;ratioP1;P1;durP2;ratioP2;P2;SDS_P1;SDS_P2;PMS_P1;PMS_P2;Temp;Humidity;BMP_temperature;BMP_pressure;BME280_temperature;BME280_humidity;BME280_pressure;Samples;Min_cycle;Max_cycle;Signal;HPM_P1;HPM_P2
2022/07/28 00:01:48;;;;;;;6.00;2.25;;;;;;;12.79;98.35;101990.50;5001890;28;20131;-66
2022/07/28 00:04:13;;;;;;;2.60;1.80;;;;;;;12.76;97.85;101988.88;5002687;28;20042;-65
2022/07/28 00:06:38;;;;;;;4.72;2.03;;;;;;;12.77;97.44;101989.75;5000838;28;20045;-65
2022/07/28 00:09:04;;;;;;;2.55;1.75;;;;;;;12.76;97.25;101993.38;5002821;28;20038;-65
2022/07/28 00:11:29;;;;;;;5.13;2.15;;;;;;;12.77;98.57;101987.94;5002436;28;20033;-64
2022/07/28 00:13:55;;;;;;;6.97;2.17;;;;;;;12.69;99.26;101991.00;5002152;28;20068;-65
2022/07/28 00:16:20;;;;;;;3.22;2.10;;;;;;;12.72;98.93;101991.81;5001877;28;20065;-65
2022/07/28 00:18:46;;;;;;;4.18;2.10;;;;;;;12.66;98.72;101985.84;5000660;28;20046;-65
2022/07/28 00:21:12;;;;;;;7.30;2.28;;;;;;;12.51;99.32;101991.16;5001644;28;20041;-65
2022/07/28 00:23:38;;;;;;;3.60;2.38;;;;;;;12.76;99.27;101988.03;5000547;28;20042;-65
2022/07/28 00:26:03;;;;;;;8.10;2.15;;;;;;;12.53;100.00;101984.75;5001808;28;20041;-65
2022/07/28 00:28:29;;;;;;;2.35;2.10;;;;;;;12.63;98.44;101977.97;5001833;28;20041;-65
2022/07/28 00:30:54;;;;;;;5.72;2.55;;;;;;;12.52;97.75;101977.69;5001806;28;20049;-65
2022/07/28 00:33:20;;;;;;;3.53;2.38;;;;;;;12.54;98.22;101986.47;5001515;28;20042;-66
2022/07/28 00:35:46;;;;;;;5.47;2.20;;;;;;;12.51;100.00;101991.16;5001726;28;20544;-66
2022/07/28 00:38:11;;;;;;;3.45;2.22;;;;;;;12.49;97.79;101985.00;5001155;28;20065;-65
2022/07/28 00:43:21;;;;;;;3.08;2.00;;;;;;;12.54;98.79;101977.59;5000960;28;20398;-65
2022/07/28 00:45:46;;;;;;;3.88;2.22;;;;;;;12.53;98.40;101979.41;5000581;28;20057;-65
2022/07/28 00:48:12;;;;;;;5.82;2.17;;;;;;;12.47;99.67;101981.56;5000630;28;20037;-65
2022/07/28 00:50:39;;;;;;;4.80;2.40;;;;;;;12.22;100.00;101980.16;4998791;28;20124;-65
2022/07/28 00:53:05;;;;;;;9.35;3.00;;;;;;;12.27;100.00;101974.56;5000512;28;20041;-65
2022/07/28 00:55:31;;;;;;;2.63;2.42;;;;;;;12.27;100.00;101970.09;5000476;28;20041;-65
2022/07/28 00:57:56;;;;;;;5.15;2.58;;;;;;;12.25;100.00;101979.13;5000430;28;20072;-65
2022/07/28 01:00:22;;;;;;;3.95;2.17;;;;;;;12.33;100.00;101976.91;5000597;28;20147;-65
2022/07/28 01:02:48;;;;;;;4.30;1.85;;;;;;;12.31;100.00;101974.34;5000406;28;20109;-65
2022/07/28 01:05:14;;;;;;;5.70;2.38;;;;;;;12.40;100.00;101973.00;4998657;28;20041;-65
2022/07/28 01:08:02;;;;;;;6.95;2.20;;;;;;;12.12;100.00;101979.78;5000017;28;20045;-65
2022/07/28 01:10:52;;;;;;;4.38;1.98;;;;;;;12.16;100.00;101976.00;5000127;28;20045;-65
2022/07/28 01:13:25;;;;;;;3.13;2.53;;;;;;;12.09;100.00;101971.03;5000840;28;20049;-65
2022/07/28 01:16:00;;;;;;;6.60;2.50;;;;;;;12.04;100.00;101975.75;5001098;28;20080;-65
2022/07/28 01:18:30;;;;;;;5.82;2.47;;;;;;;11.90;100.00;101963.97;5000487;28;20632;-66
2022/07/28 01:21:07;;;;;;;7.30;2.58;;;;;;;11.96;100.00;101961.94;4998453;28;20056;-65
2022/07/28 01:23:51;;;;;;;4.95;2.65;;;;;;;11.92;100.00;101969.22;5000314;28;20139;-65
2022/07/28 01:26:55;;;;;;;6.03;2.72;;;;;;;11.90;100.00;101963.97;4998108;28;20180;-65
2022/07/28 01:29:35;;;;;;;7.80;2.97;;;;;;;11.79;100.00;101962.72;4998463;28;20037;-65
2022/07/28 01:32:14;;;;;;;4.13;2.38;;;;;;;11.70;100.00;101963.19;4999469;28;20040;-65
2022/07/28 01:35:07;;;;;;;9.25;3.03;;;;;;;11.80;100.00;101972.50;4998074;28;20038;-65
2022/07/28 01:37:38;;;;;;;4.68;2.72;;;;;;;11.66;100.00;101966.03;4997214;28;20624;-65
2022/07/28 01:40:06;;;;;;;8.57;2.70;;;;;;;11.70;100.00;101961.41;4999097;28;20033;-65
2022/07/28 01:42:38;;;;;;;6.65;3.15;;;;;;;11.70;100.00;101963.19;4999025;28;20045;-65
2022/07/28 01:45:05;;;;;;;;;;;;;;;11.51;100.00;101958.78;4998722;28;20042;-65
2022/07/28 01:47:33;;;;;;;5.13;2.75;;;;;;;11.38;100.00;101962.97;5000268;28;19943;-65
2022/07/28 01:50:02;;;;;;;8.27;2.75;;;;;;;11.33;100.00;101962.34;5000102;28;20052;-68
2022/07/28 01:52:30;;;;;;;6.28;3.20;;;;;;;11.25;100.00;101960.06;4999440;28;20104;-65
2022/07/28 01:54:57;;;;;;;4.60;2.65;;;;;;;11.25;100.00;101960.06;4997625;28;20543;-66
2022/07/28 01:57:25;;;;;;;5.78;2.78;;;;;;;11.22;100.00;101954.84;4997440;28;20049;-65
2022/07/28 01:59:53;;;;;;;9.00;3.10;;;;;;;11.23;100.00;101945.03;4998410;28;20250;-65
2022/07/28 02:02:20;;;;;;;6.85;2.70;;;;;;;11.25;100.00;101953.84;4998449;28;20057;-66
2022/07/28 02:04:47;;;;;;;6.40;2.63;;;;;;;11.22;100.00;101951.31;4998039;28;20049;-65
2022/07/28 02:07:14;;;;;;;8.13;2.65;;;;;;;11.12;100.00;101946.41;4998390;28;20577;-65
2022/07/28 02:09:43;;;;;;;7.32;4.03;;;;;;;11.20;100.00;101945.22;4998723;28;20065;-65
2022/07/28 02:12:12;;;;;;;4.35;2.58;;;;;;;11.14;100.00;101935.66;4997143;28;20042;-65
2022/07/28 02:14:38;;;;;;;6.78;2.75;;;;;;;11.12;100.00;101942.88;4999044;28;20056;-65
2022/07/28 02:17:13;;;;;;;4.40;2.80;;;;;;;11.18;100.00;101936.38;4999273;28;20049;-65
2022/07/28 02:19:41;;;;;;;8.68;2.85;;;;;;;11.19;100.00;101938.97;4997588;28;20865;-65
2022/07/28 02:22:08;;;;;;;8.65;2.60;;;;;;;11.09;100.00;101935.00;4997731;28;20434;-65
2022/07/28 02:24:35;;;;;;;6.32;3.92;;;;;;;10.96;100.00;101941.91;4997817;28;20041;-65
2022/07/28 02:27:37;;;;;;;4.15;2.90;;;;;;;10.95;100.00;101941.03;4999046;28;20070;-64
2022/07/28 02:30:08;;;;;;;7.93;2.70;;;;;;;10.90;100.00;101932.38;4981828;28;20104;-65
2022/07/28 02:32:49;;;;;;;4.80;2.83;;;;;;;10.93;100.00;101940.22;4981749;28;20519;-65
2022/07/28 02:35:47;;;;;;;6.03;2.90;;;;;;;10.82;100.00;101935.41;5000376;28;20065;-65
2022/07/28 02:38:20;;;;;;;5.82;2.80;;;;;;;10.83;100.00;101931.78;4998429;28;20060;-65
2022/07/28 02:40:51;;;;;;;8.70;3.00;;;;;;;10.68;100.00;101932.50;4999937;28;20487;-65
2022/07/28 02:43:23;;;;;;;6.53;3.17;;;;;;;10.70;100.00;101938.66;4998219;28;20078;-65
2022/07/28 02:45:52;;;;;;;4.75;2.75;;;;;;;10.60;100.00;101932.00;5002886;28;20036;-65
2022/07/28 02:48:23;;;;;;;6.82;2.80;;;;;;;10.45;100.00;101936.25;5003033;28;20050;-65
2022/07/28 02:50:50;;;;;;;6.70;2.67;;;;;;;10.60;100.00;101934.69;5003210;28;20462;-65
2022/07/28 02:53:16;;;;;;;9.68;3.80;;;;;;;10.48;100.00;101922.75;5003123;28;20124;-65
2022/07/28 02:55:46;;;;;;;12.30;3.00;;;;;;;10.42;100.00;101931.03;5003656;28;20052;-65
2022/07/28 02:58:13;;;;;;;5.18;3.40;;;;;;;10.38;100.00;101932.09;5003504;28;20041;-65
2022/07/28 03:00:39;;;;;;;4.72;2.88;;;;;;;10.46;100.00;101923.78;5003469;28;20050;-65
2022/07/28 03:03:06;;;;;;;7.68;3.42;;;;;;;10.49;100.00;101924.50;5003422;28;20553;-65
2022/07/28 03:05:32;;;;;;;6.03;3.30;;;;;;;10.59;100.00;101922.25;5001413;28;20038;-67
2022/07/28 03:07:58;;;;;;;10.18;3.47;;;;;;;10.56;100.00;101925.94;5003318;28;20453;-65
2022/07/28 03:10:26;;;;;;;6.68;3.22;;;;;;;10.47;100.00;101920.16;5001937;28;20850;-65
2022/07/28 03:12:52;;;;;;;6.28;3.65;;;;;;;10.56;100.00;101925.06;5001449;28;20145;-66
2022/07/28 03:15:18;;;;;;;8.50;3.45;;;;;;;10.53;100.00;101917.22;5003050;28;20061;-65
2022/07/28 03:17:44;;;;;;;14.45;3.10;;;;;;;10.52;100.00;101924.34;5003079;28;20050;-65
2022/07/28 03:20:10;;;;;;;7.97;3.97;;;;;;;10.56;100.00;101915.28;5001338;28;20052;-65
2022/07/28 03:22:36;;;;;;;11.65;3.83;;;;;;;10.61;100.00;101918.59;5002565;28;20085;-65
2022/07/28 03:25:09;;;;;;;6.68;4.07;;;;;;;10.54;100.00;101927.81;5001533;28;20033;-66
2022/07/28 03:27:42;;;;;;;10.18;3.85;;;;;;;10.47;100.00;101930.81;4983035;28;20049;-65
2022/07/28 03:30:12;;;;;;;9.20;3.17;;;;;;;10.60;100.00;101942.69;4980840;28;20501;-65
2022/07/28 03:32:47;;;;;;;10.40;3.67;;;;;;;10.61;100.00;101941.72;4981080;28;20042;-65
2022/07/28 03:35:13;;;;;;;5.18;2.85;;;;;;;10.56;100.00;101943.75;4982828;28;20042;-65
2022/07/28 03:37:41;;;;;;;6.75;3.03;;;;;;;10.55;100.00;101942.88;4982220;28;20042;-65
2022/07/28 03:40:10;;;;;;;9.43;4.10;;;;;;;10.46;100.00;101945.97;4980962;28;20058;-65
2022/07/28 03:42:37;;;;;;;6.97;3.40;;;;;;;10.35;100.00;101949.13;4982426;28;20050;-65
2022/07/28 03:45:04;;;;;;;5.05;2.97;;;;;;;10.31;100.00;101949.31;4980586;28;20133;-65
2022/07/28 03:47:30;;;;;;;11.35;3.83;;;;;;;10.14;100.00;101950.03;4980683;28;20130;-65
2022/07/28 03:49:55;;;;;;;10.70;4.25;;;;;;;10.20;100.00;101955.09;4980891;28;20607;-65
2022/07/28 03:52:21;;;;;;;10.43;3.80;;;;;;;10.14;100.00;101955.38;4996893;28;20449;-65
2022/07/28 03:54:46;;;;;;;7.07;3.50;;;;;;;10.20;100.00;101954.22;5000418;28;20054;-65
2022/07/28 03:57:12;;;;;;;10.20;4.20;;;;;;;10.32;100.00;101959.03;4999680;28;20092;-65
2022/07/28 03:59:37;;;;;;;5.32;4.00;;;;;;;10.36;100.00;101957.97;5002088;28;20874;-65
2022/07/28 04:02:03;;;;;;;6.93;3.80;;;;;;;10.46;100.00;101955.75;5002977;28;20041;-65
2022/07/28 04:04:29;;;;;;;8.57;3.75;;;;;;;10.50;100.00;101957.38;5002605;28;20470;-65
2022/07/28 04:06:54;;;;;;;10.75;3.63;;;;;;;10.60;100.00;101964.88;5002450;28;20025;-65
2022/07/28 04:09:20;;;;;;;6.32;3.80;;;;;;;10.59;100.00;101965.81;5000571;28;20046;-65
2022/07/28 04:11:45;;;;;;;11.00;3.88;;;;;;;10.73;100.00;101959.84;5000443;28;20088;-66
2022/07/28 04:14:10;;;;;;;7.28;3.92;;;;;;;10.81;100.00;101955.00;5001559;28;20918;-65
2022/07/28 04:16:36;;;;;;;9.13;3.85;;;;;;;10.94;100.00;101959.75;5000954;28;20451;-65
2022/07/28 04:19:01;;;;;;;6.57;4.13;;;;;;;10.91;100.00;101962.59;4999840;28;20037;-65
2022/07/28 04:21:27;;;;;;;8.98;4.13;;;;;;;10.89;100.00;101962.66;4999730;28;20045;-65
2022/07/28 04:23:52;;;;;;;13.60;5.00;;;;;;;10.98;100.00;101951.53;4999199;28;20041;-65
2022/07/28 04:26:18;;;;;;;5.78;4.05;;;;;;;11.10;100.00;101950.13;5000883;28;20116;-65
2022/07/28 04:28:45;;;;;;;6.88;4.32;;;;;;;11.17;100.00;101951.53;4999261;28;20037;-65
2022/07/28 04:31:11;;;;;;;5.82;3.55;;;;;;;11.28;100.00;101953.69;5001367;28;20029;-65
2022/07/28 04:33:36;;;;;;;10.80;4.32;;;;;;;11.22;100.00;101948.66;5001550;28;20041;-65
2022/07/28 04:36:02;;;;;;;11.82;4.10;;;;;;;11.13;100.00;101948.16;4999598;28;20041;-66
2022/07/28 04:38:28;;;;;;;12.05;4.65;;;;;;;11.32;100.00;101940.13;5001548;28;20064;-65
2022/07/28 04:40:54;;;;;;;5.60;3.90;;;;;;;11.16;100.00;101947.16;5000278;28;20038;-65
2022/07/28 04:43:20;;;;;;;10.68;3.45;;;;;;;10.99;100.00;101939.94;5001985;28;20038;-65
2022/07/28 04:45:46;;;;;;;7.55;3.13;;;;;;;11.00;100.00;101949.69;5001968;28;20070;-66
2022/07/28 04:48:13;;;;;;;8.35;4.00;;;;;;;10.93;100.00;101945.56;5000288;28;20084;-65
2022/07/28 04:50:43;;;;;;;8.43;3.78;;;;;;;11.16;100.00;101947.16;4998901;28;20034;-65
2022/07/28 04:53:10;;;;;;;9.13;3.90;;;;;;;11.18;100.00;101949.72;4981900;28;20120;-65
2022/07/28 04:55:37;;;;;;;10.27;3.70;;;;;;;11.14;100.00;101951.69;4983933;28;20038;-65
2022/07/28 04:58:06;;;;;;;5.43;3.55;;;;;;;12.05;100.00;101942.72;4987252;28;20479;-65
2022/07/28 05:00:31;;;;;;;7.68;3.53;;;;;;;13.16;93.58;101943.84;5000471;28;20042;-65
2022/07/28 05:02:57;;;;;;;6.15;3.45;;;;;;;13.17;91.25;101938.38;5001449;28;20045;-65
2022/07/28 05:05:23;;;;;;;8.20;3.42;;;;;;;14.03;86.47;101943.25;5000233;28;20049;-66
2022/07/28 05:07:49;;;;;;;7.28;3.40;;;;;;;13.62;88.08;101939.41;4999881;28;20510;-66
2022/07/28 05:10:14;;;;;;;6.70;3.88;;;;;;;12.90;93.96;101939.91;4998464;28;20049;-65
2022/07/28 05:12:40;;;;;;;7.18;3.13;;;;;;;13.03;93.51;101940.13;5000203;28;20655;-65
2022/07/28 05:15:07;;;;;;;10.05;4.20;;;;;;;13.18;92.94;101926.72;4999303;28;20046;-64
2022/07/28 05:17:32;;;;;;;7.03;3.35;;;;;;;13.26;94.05;101938.88;4998476;28;20104;-65
2022/07/28 05:19:58;;;;;;;9.00;3.10;;;;;;;13.54;91.18;101928.25;4998981;28;20442;-65
2022/07/28 05:22:23;;;;;;;6.53;3.20;;;;;;;13.39;91.95;101924.66;4999224;28;20045;-65
2022/07/28 05:24:49;;;;;;;18.83;3.33;;;;;;;13.43;91.08;101928.03;4997203;28;20049;-65
2022/07/28 05:27:14;;;;;;;7.40;3.15;;;;;;;13.59;90.38;101936.03;4997536;28;20034;-65
2022/07/28 05:29:42;;;;;;;9.43;2.72;;;;;;;13.92;90.33;101927.81;4999439;28;20045;-65
2022/07/28 05:32:08;;;;;;;8.68;3.33;;;;;;;14.54;85.49;101933.00;4999406;28;20048;-66
2022/07/28 05:34:34;;;;;;;6.47;3.10;;;;;;;14.59;85.91;101934.44;4998183;28;20046;-65
2022/07/28 05:37:01;;;;;;;4.20;2.95;;;;;;;14.17;88.73;101935.25;4995937;28;20821;-65
2022/07/28 05:39:31;;;;;;;9.43;3.75;;;;;;;14.03;88.57;101933.41;4997181;28;20030;-66
2022/07/28 05:41:58;;;;;;;4.78;2.95;;;;;;;13.77;90.97;101932.28;4998156;28;20042;-65
2022/07/28 05:44:24;;;;;;;4.63;2.72;;;;;;;14.11;88.74;101928.44;4996826;28;20141;-65
2022/07/28 05:46:49;;;;;;;6.88;2.92;;;;;;;13.80;92.16;101926.72;4997662;28;20040;-66
2022/07/28 05:49:15;;;;;;;7.93;3.00;;;;;;;13.73;91.22;101933.41;4998234;28;20034;-66
2022/07/28 05:51:40;;;;;;;7.65;3.40;;;;;;;14.04;89.90;101935.13;4999207;28;20050;-65
2022/07/28 05:54:06;;;;;;;14.35;3.97;;;;;;;14.73;85.93;101939.81;5000291;28;20049;-65
2022/07/28 05:56:31;;;;;;;6.53;2.72;;;;;;;15.25;83.49;101939.13;4997725;28;20037;-65
2022/07/28 05:58:57;;;;;;;8.55;3.15;;;;;;;15.33;82.70;101941.31;4998048;28;20081;-65
2022/07/28 06:01:22;;;;;;;5.43;2.70;;;;;;;15.10;83.75;101936.56;4997093;28;20498;-65
2022/07/28 06:03:51;;;;;;;6.20;2.90;;;;;;;15.37;82.97;101936.63;4999041;28;20041;-64
2022/07/28 06:06:17;;;;;;;8.07;2.22;;;;;;;15.31;82.71;101940.53;4999367;28;20046;-64
2022/07/28 06:08:46;;;;;;;7.70;2.78;;;;;;;15.52;82.79;101932.91;4998938;28;20050;-65
2022/07/28 06:11:12;;;;;;;7.35;2.80;;;;;;;15.93;79.86;101929.28;4997886;28;20069;-66
2022/07/28 06:13:38;;;;;;;8.00;2.70;;;;;;;16.98;76.47;101931.75;4999471;28;20601;-66
2022/07/28 06:16:05;;;;;;;8.65;2.78;;;;;;;16.19;79.25;101930.16;4997526;28;20051;-66
2022/07/28 06:18:31;;;;;;;6.05;2.65;;;;;;;16.60;77.94;101935.31;4999059;28;20596;-65
2022/07/28 06:20:57;;;;;;;6.53;2.33;;;;;;;16.72;74.42;101933.63;5002700;28;20049;-66
2022/07/28 06:23:23;;;;;;;3.60;1.70;;;;;;;16.44;75.48;101934.69;5003226;28;20049;-66
2022/07/28 06:25:52;;;;;;;10.65;2.47;;;;;;;16.85;75.17;101936.28;5003082;28;20038;-66
2022/07/28 06:28:18;;;;;;;4.70;1.70;;;;;;;16.61;75.57;101934.34;5003028;28;20061;-66
2022/07/28 06:30:45;;;;;;;9.35;2.20;;;;;;;16.94;75.59;101927.53;5003229;28;20440;-66
2022/07/28 06:33:10;;;;;;;5.00;1.98;;;;;;;17.56;72.28;101930.94;5002994;28;20616;-66
2022/07/28 06:35:36;;;;;;;4.43;1.60;;;;;;;17.74;71.97;101930.59;5000998;28;20042;-66
2022/07/28 06:38:01;;;;;;;4.10;1.92;;;;;;;17.71;70.90;101937.03;5003063;28;20814;-65
2022/07/28 06:40:27;;;;;;;7.70;2.67;;;;;;;18.14;70.37;101925.66;5003562;28;20042;-66
2022/07/28 06:42:52;;;;;;;7.28;1.35;;;;;;;17.37;69.75;101935.13;5002182;28;20046;-66
2022/07/28 06:45:19;;;;;;;5.70;1.85;;;;;;;17.27;70.65;101938.53;5003797;28;20056;-66
2022/07/28 06:47:45;;;;;;;6.72;1.50;;;;;;;17.53;68.93;101935.75;5002085;28;20029;-65
2022/07/28 06:50:11;;;;;;;1.67;1.13;;;;;;;18.00;68.16;101932.13;5003537;28;20038;-66
2022/07/28 06:52:36;;;;;;;3.70;1.25;;;;;;;18.96;66.50;101925.47;5003193;28;20049;-66
2022/07/28 06:55:05;;;;;;;5.25;1.77;;;;;;;19.01;64.49;101928.66;5003277;28;20048;-66
2022/07/28 06:57:32;;;;;;;2.95;1.38;;;;;;;18.55;64.78;101933.19;5003522;28;20077;-65
2022/07/28 06:59:58;;;;;;;8.82;1.65;;;;;;;19.72;60.83;101923.66;5001376;28;20045;-65
2022/07/28 07:02:23;;;;;;;3.13;1.00;;;;;;;19.33;61.70;101926.03;5002316;28;20112;-65
2022/07/28 07:04:50;;;;;;;2.50;1.08;;;;;;;19.22;61.70;101929.59;5003641;28;20034;-65
2022/07/28 07:07:16;;;;;;;2.40;1.20;;;;;;;19.32;60.70;101925.13;5003254;28;20454;-65
2022/07/28 07:09:41;;;;;;;8.23;2.00;;;;;;;19.94;59.39;101911.91;4985364;28;20074;-65
2022/07/28 07:12:07;;;;;;;5.65;1.10;;;;;;;19.66;59.61;101919.66;5003299;28;20054;-66
2022/07/28 07:14:32;;;;;;;3.58;1.23;;;;;;;19.52;58.26;101922.63;5003225;28;20050;-65
2022/07/28 07:16:58;;;;;;;5.10;1.40;;;;;;;18.67;59.86;101923.25;5001228;28;20050;-65
2022/07/28 07:19:23;;;;;;;3.85;0.93;;;;;;;18.78;60.60;101933.25;5002755;28;20041;-65
2022/07/28 07:21:49;;;;;;;2.50;1.17;;;;;;;18.68;60.11;101932.22;5001219;28;20037;-66
2022/07/28 07:24:15;;;;;;;2.92;1.08;;;;;;;18.87;60.12;101927.94;5002088;28;20045;-65
2022/07/28 07:26:40;;;;;;;2.53;1.23;;;;;;;18.56;62.72;101934.91;5002453;28;20108;-66
2022/07/28 07:29:06;;;;;;;7.15;1.38;;;;;;;18.13;62.09;101923.09;5001291;28;20057;-66
2022/07/28 07:31:33;;;;;;;3.35;1.45;;;;;;;18.52;61.08;101927.16;5002096;28;20141;-65
2022/07/28 07:33:59;;;;;;;5.97;1.33;;;;;;;18.44;61.16;101913.44;5002586;28;20053;-65
2022/07/28 07:36:24;;;;;;;5.88;1.80;;;;;;;18.78;60.23;101915.19;5002163;28;20046;-65
2022/07/28 07:38:50;;;;;;;2.45;1.00;;;;;;;19.14;58.22;101918.56;5002146;28;20045;-65
2022/07/28 07:41:17;;;;;;;4.70;1.15;;;;;;;18.82;58.94;101911.22;5002724;28;20037;-65
2022/07/28 07:43:43;;;;;;;3.45;1.27;;;;;;;19.65;57.37;101902.56;5002255;28;20486;-65
2022/07/28 07:46:09;;;;;;;7.93;1.35;;;;;;;19.62;57.21;101901.94;5000459;28;20143;-65
2022/07/28 07:48:34;;;;;;;6.25;1.80;;;;;;;19.61;57.36;101902.94;5000806;28;20049;-65
2022/07/28 07:51:00;;;;;;;3.03;1.60;;;;;;;19.50;56.41;101903.81;5002348;28;20045;-65
2022/07/28 07:53:25;;;;;;;7.40;1.27;;;;;;;20.09;55.08;101903.28;5002509;28;20045;-66
2022/07/28 07:55:50;;;;;;;5.72;1.10;;;;;;;19.80;54.99;101900.38;5002631;28;20045;-65
2022/07/28 07:58:16;;;;;;;5.68;1.35;;;;;;;20.40;55.53;101898.75;5001859;28;20052;-66
2022/07/28 08:00:42;;;;;;;3.75;1.77;;;;;;;19.88;55.82;101888.88;5000968;28;20061;-65
2022/07/28 08:03:07;;;;;;;7.60;1.15;;;;;;;19.91;53.78;101891.34;5000589;28;20037;-65
2022/07/28 08:05:33;;;;;;;6.13;1.00;;;;;;;19.52;55.04;101896.41;5002363;28;20141;-65
2022/07/28 08:07:59;;;;;;;3.72;1.15;;;;;;;19.15;56.19;101904.06;5001973;28;20056;-66
2022/07/28 08:10:24;;;;;;;5.00;1.33;;;;;;;19.11;55.51;101898.03;5000950;28;20112;-65
2022/07/28 08:12:50;;;;;;;2.50;1.00;;;;;;;19.07;59.15;101899.25;5001996;28;20037;-65
2022/07/28 08:15:15;;;;;;;5.88;1.90;;;;;;;19.29;56.10;101886.69;5001780;28;20042;-65
2022/07/28 08:17:41;;;;;;;5.82;1.10;;;;;;;19.78;52.71;101885.25;5001840;28;20183;-66
2022/07/28 08:20:07;;;;;;;3.33;1.02;;;;;;;20.15;53.38;101891.06;5003074;28;20644;-65
2022/07/28 08:22:32;;;;;;;8.15;1.02;;;;;;;20.22;53.47;101886.81;5001053;28;20076;-66
2022/07/28 08:25:00;;;;;;;5.70;1.75;;;;;;;19.84;53.63;101885.59;5002437;28;20034;-65
2022/07/28 08:27:26;;;;;;;2.65;0.60;;;;;;;20.09;50.20;101884.34;5005227;28;20041;-65
2022/07/28 08:29:52;;;;;;;4.65;1.00;;;;;;;20.43;50.76;101878.66;5004532;28;20053;-66
2022/07/28 08:32:18;;;;;;;4.15;1.20;;;;;;;20.74;54.38;101878.69;5004673;28;20038;-65
2022/07/28 08:34:43;;;;;;;6.50;1.17;;;;;;;20.13;51.64;101872.25;5002043;28;20053;-65
2022/07/28 08:37:09;;;;;;;6.47;1.10;;;;;;;20.75;52.19;101873.09;5003723;28;20061;-66
2022/07/28 08:39:34;;;;;;;1.90;1.00;;;;;;;20.74;50.90;101876.81;5003355;28;20128;-66
2022/07/28 08:42:17;;;;;;;5.85;1.08;;;;;;;20.64;47.58;101882.22;5002551;28;20042;-65
2022/07/28 08:44:53;;;;;;;1.50;0.90;;;;;;;21.29;51.33;101874.50;5003276;28;20038;-65
2022/07/28 08:47:19;;;;;;;3.35;1.23;;;;;;;20.47;51.12;101887.41;5002795;28;20046;-66
2022/07/28 08:49:47;;;;;;;2.28;1.05;;;;;;;20.17;49.71;101883.66;5001538;28;20050;-66
2022/07/28 08:52:13;;;;;;;2.42;0.90;;;;;;;18.98;51.89;101888.38;5002229;28;20052;-66
2022/07/28 08:54:44;;;;;;;4.68;1.10;;;;;;;19.17;51.78;101891.25;5001390;28;20045;-65
2022/07/28 08:57:16;;;;;;;2.75;1.10;;;;;;;19.48;50.99;101892.28;5001207;28;20034;-66
2022/07/28 08:59:42;;;;;;;3.95;1.15;;;;;;;19.53;50.37;101884.63;4998843;28;20065;-66
2022/07/28 09:02:11;;;;;;;4.55;1.00;;;;;;;20.19;51.60;101876.28;5000609;28;20398;-65
2022/07/28 09:04:38;;;;;;;1.42;0.90;;;;;;;20.20;50.61;101877.97;5000127;28;20117;-65
2022/07/28 09:07:04;;;;;;;2.58;0.90;;;;;;;20.51;49.42;101883.44;5000256;28;20143;-66
2022/07/28 09:09:31;;;;;;;3.13;1.00;;;;;;;20.78;49.14;101877.38;4999571;28;20037;-66
2022/07/28 09:12:06;;;;;;;4.22;0.90;;;;;;;21.07;49.73;101877.47;5001663;28;20045;-65
2022/07/28 09:14:32;;;;;;;3.10;0.98;;;;;;;20.65;49.69;101874.94;5001955;28;20328;-66
2022/07/28 09:17:02;;;;;;;3.22;0.80;;;;;;;20.94;48.56;101875.03;4999766;28;20810;-66
2022/07/28 09:19:28;;;;;;;3.38;0.98;;;;;;;20.59;49.45;101875.50;5000338;28;20081;-67
2022/07/28 09:21:55;;;;;;;3.42;0.90;;;;;;;20.71;47.35;101876.22;5001117;28;20065;-66
2022/07/28 09:24:34;;;;;;;4.60;0.90;;;;;;;20.13;48.67;101866.84;5001107;28;20739;-65
2022/07/28 09:27:02;;;;;;;1.55;0.90;;;;;;;20.34;50.48;101874.06;5000568;28;20041;-65
2022/07/28 09:29:28;;;;;;;3.58;1.02;;;;;;;20.51;50.99;101876.16;4998874;28;20093;-65
2022/07/28 09:31:54;;;;;;;2.40;0.82;;;;;;;20.54;50.58;101880.47;4998772;28;20037;-65
2022/07/28 09:34:20;;;;;;;1.60;0.75;;;;;;;20.54;47.73;101875.03;5000462;28;20448;-65
2022/07/28 09:36:45;;;;;;;1.88;0.73;;;;;;;20.58;47.62;101871.03;5000567;28;20889;-65
2022/07/28 09:39:26;;;;;;;4.35;0.90;;;;;;;21.08;51.39;101869.16;5000405;28;20041;-65
2022/07/28 09:41:55;;;;;;;4.55;1.20;;;;;;;21.19;48.44;101866.34;5001296;28;20117;-66
2022/07/28 09:44:22;;;;;;;2.60;0.85;;;;;;;21.39;46.79;101866.41;5001308;28;20761;-65
2022/07/28 09:46:48;;;;;;;3.50;0.88;;;;;;;21.73;46.10;101855.91;4999261;28;20050;-65
2022/07/28 09:49:14;;;;;;;2.67;0.98;;;;;;;20.93;47.43;101863.31;4999346;28;20502;-66
2022/07/28 09:51:39;;;;;;;3.22;1.10;;;;;;;20.72;47.64;101859.81;5001528;28;20049;-66
2022/07/28 09:54:13;;;;;;;2.25;0.70;;;;;;;20.80;45.93;101851.00;5001835;28;20487;-65
2022/07/28 09:56:42;;;;;;;5.63;1.08;;;;;;;21.20;46.95;101840.06;5003935;28;20038;-65
2022/07/28 09:59:09;;;;;;;4.95;0.95;;;;;;;20.89;47.49;101845.59;5003182;28;20044;-66
2022/07/28 10:01:56;;;;;;;1.73;0.73;;;;;;;21.63;46.99;101836.06;5005079;28;20085;-66
2022/07/28 10:04:34;;;;;;;2.63;1.00;;;;;;;21.81;46.77;101833.50;5005542;28;20080;-66
2022/07/28 10:07:08;;;;;;;6.72;0.95;;;;;;;21.51;48.07;101839.97;5006168;28;20033;-65
2022/07/28 10:09:34;;;;;;;4.03;0.93;;;;;;;21.59;48.90;101838.25;5006076;28;20041;-65
2022/07/28 10:12:24;;;;;;;1.67;0.77;;;;;;;21.45;46.83;101841.41;5006022;28;20065;-66
2022/07/28 10:14:51;;;;;;;5.93;1.08;;;;;;;21.46;47.69;101845.81;5005170;28;20060;-66
2022/07/28 10:17:33;;;;;;;3.28;0.95;;;;;;;21.94;44.74;101836.75;5005561;28;20054;-65
2022/07/28 10:20:00;;;;;;;7.15;1.40;;;;;;;21.80;46.04;101843.50;5006168;28;20050;-66
2022/07/28 10:22:31;;;;;;;1.05;0.82;;;;;;;21.25;45.84;101831.50;5006125;28;20038;-65
2022/07/28 10:25:00;;;;;;;3.70;1.48;;;;;;;21.42;46.46;101828.09;5005914;28;20037;-66
2022/07/28 10:27:27;;;;;;;1.25;0.80;;;;;;;21.64;46.85;101830.53;4987957;28;20804;-65
2022/07/28 10:29:58;;;;;;;1.30;0.85;;;;;;;22.01;45.14;101821.56;4987381;28;20042;-65
2022/07/28 10:32:24;;;;;;;1.00;0.75;;;;;;;21.11;46.16;101830.06;4985454;28;20514;-65
2022/07/28 10:34:56;;;;;;;5.10;0.90;;;;;;;21.18;51.05;101823.06;4986903;28;20038;-65
2022/07/28 10:37:24;;;;;;;2.30;1.00;;;;;;;21.34;47.43;101820.69;4983977;28;20042;-65
2022/07/28 10:40:10;;;;;;;1.75;1.10;;;;;;;21.97;44.86;101809.28;4986074;28;20037;-65
2022/07/28 10:42:39;;;;;;;1.80;0.75;;;;;;;21.80;45.10;101818.19;4968826;28;20090;-65
2022/07/28 10:45:08;;;;;;;3.00;0.88;;;;;;;21.77;44.93;101813.06;4986522;28;20045;-65
2022/07/28 10:47:33;;;;;;;1.65;1.00;;;;;;;21.58;43.98;101809.34;4986910;28;20042;-65
2022/07/28 10:50:00;;;;;;;3.72;1.30;;;;;;;21.74;44.93;101808.78;4986112;28;20116;-65
2022/07/28 10:52:26;;;;;;;5.50;1.20;;;;;;;21.54;45.82;101805.25;5002966;28;20136;-66
2022/07/28 10:55:19;;;;;;;2.83;1.02;;;;;;;21.88;43.75;101808.28;5007292;28;20241;-65
2022/07/28 10:58:04;;;;;;;4.85;1.25;;;;;;;21.91;44.21;101805.28;5006963;28;20034;-66
2022/07/28 11:00:32;;;;;;;3.95;1.00;;;;;;;22.36;44.32;101803.72;5007857;28;20149;-65
2022/07/28 11:03:00;;;;;;;5.50;1.17;;;;;;;21.78;43.59;101801.19;5005872;28;20199;-65
2022/07/28 11:05:41;;;;;;;3.35;1.55;;;;;;;22.41;44.75;101791.41;5007970;28;20483;-65
2022/07/28 11:08:15;;;;;;;4.25;1.00;;;;;;;21.89;44.49;101788.31;5007673;28;20562;-64
2022/07/28 11:10:52;;;;;;;2.88;1.10;;;;;;;22.13;43.89;101787.78;5009784;28;20077;-66
2022/07/28 11:13:44;;;;;;;4.10;1.10;;;;;;;22.10;44.35;101771.78;5009937;28;20092;-65
2022/07/28 11:16:12;;;;;;;1.63;0.85;;;;;;;21.94;45.66;101777.00;5009847;28;20084;-65
2022/07/28 11:19:04;;;;;;;3.47;1.27;;;;;;;22.18;43.76;101773.75;5011679;28;20521;-65
2022/07/28 11:21:30;;;;;;;5.47;1.10;;;;;;;22.75;43.59;101774.44;5009192;28;20037;-65
2022/07/28 11:23:56;;;;;;;1.60;0.95;;;;;;;22.32;47.08;101767.84;4989616;28;20257;-66
2022/07/28 11:26:26;;;;;;;4.07;1.00;;;;;;;22.66;47.67;101756.34;4992860;28;20045;-66
2022/07/28 11:29:07;;;;;;;2.55;0.95;;;;;;;22.63;45.94;101754.75;4987124;28;20054;-66
2022/07/28 11:31:47;;;;;;;1.05;0.60;;;;;;;21.90;44.94;101762.00;4988827;28;20079;-66